Scroll down
FLIGHT INFORMATION
Delta Air Lines

DAL2001

At Arrival Gate

KPDX
 KMSP
DATE: 2019-11-15
GATE: D9
GATE DEPARTURE: 21:19
TAKEOFF: 21:31
DATE: 2019-11-16
GATE:  -
LANDING: 00:18
GATE ARRIVAL: 00:23
FLIGHT DATA
Crew: 
Speed: 
470 kts
Altitude: 
33,030 ft
Stage Length: 
1,235.8 nm
Block Time: 
3 hrs
Flight Time: 
2.8 hrs
Fuel Used: 
19,089 lb
Cleared Route: 
TRACK DATA
50,000 ft 1,000 kts
AIRCRAFT INFO AND CUMULATIVE STATS
Aircraft Type: 
B739ERBW
Registration: 
SELCAL: 
MSN/LN: 
31941 / 5143
Operator: 
Total Flights: 
10
Total Block Time: 
30.1 hrs
Total Flight Time: 
27.1 hrs
Total Fuel Used: 
195,413 lb
DATALINK LOG | Newest first | Current as of: 2022-11-26 10:09:22
LABEL SEQUENCE CONTENT Dn/Up
QD244700:23 9.3▼ Dn
QC180600:18▼ Dn
GA3525ADVANCED GATE ASSIGNMENTS NOT YET AVAILABLE AT THIS AIRPORT▲ Up
GR5055KMSP --:-- DIPL/VIP NO▼ Dn
5U5051KMSP 160241Z 11007KT 10SM FEW020 BKN250 03/M03 A3031▲ Up
5U5051KDSM 160241Z 16007KT 10SM SCT250 12/M01 A3028▲ Up
5S5051KMSP KDSM▼ Dn
QB313021:31▼ Dn
QA190621:19 28.4▼ Dn
A30249CLEARED TO KMSP VIA LAVAA6 PDT J16 DPR UFFDA TORGY3. SQUAWK 2065.▲ Up
Q00139[LINK ACK]▲ Up
Q05726[LINK TEST]▼ Dn


AIRCRAFT HISTORY
FLIGHT DATE FLIGHT NO. ORIGIN DESTINATION CLEARED ROUTE BLOCK TIME FLIGHT TIME FUEL USED PILOT
2020-06-19DAL619KATL CYEG KATL BNA LAJUG TINGS DENNI PLESS STL IRK DSM EYHUX FSD ABR MOT VLN REFEX CAMRA IGSOX GOPEV ESVIT MUVGO BIPNA ULOXO BIPNA RW024.3 hrs4 hrs38,288 lbRandall Smith
2020-06-18DAL713KSFO KATL KSFO TYDYE TRUKN COSMC SYRAH JSICA MLF HBU LAA GCK RZC MEM HUTCC KNSAW RUSSA RUTTH JKSON MADDX GLAVN STHRN HOGGG RAIIN KLOWD SWEPT KYMMY KEAVY BAMBU RW26R4.4 hrs4.1 hrs24,943 lbDan Downs
2020-01-27DAL856KATL KSFO 5.1 hrs4.8 hrs31,772 lbDan Downs
2020-01-18DAL519KMIA KATL 1.9 hrs1.6 hrs11,776 lbChemtrails
2020-01-11DAL519TJSJ KMIA 2.8 hrs2.3 hrs16,733 lbChemtrails
2019-11-20DAL912MDPC TJSJ 0.9 hrs0.6 hrs4,849 lbCharles Harris
2019-11-19DAL543KATL MDPC 3.1 hrs2.8 hrs19,024 lbDan Downs
2019-11-18DAL1067KRSW KATL 1.7 hrs1.4 hrs10,210 lbDan Downs
2019-11-16DAL2520KMSP KRSW 3.1 hrs2.8 hrs18,729 lbDan Downs
2019-11-15DAL2001KPDX KMSP 3 hrs2.8 hrs19,089 lbDan Downs